createdAt,value
2023-07-10T08:22:38.202Z,23.35
2023-07-10T08:23:38.187Z,23.35
2023-07-10T08:24:38.166Z,23.55
2023-07-10T08:25:38.156Z,23.60
2023-07-10T08:26:38.185Z,23.54
2023-07-10T08:27:38.161Z,23.48
2023-07-10T08:32:28.955Z,23.23
2023-07-10T08:33:28.912Z,23.28
2023-07-10T08:34:28.909Z,23.51
2023-07-10T08:35:28.870Z,23.70
2023-07-10T08:36:28.856Z,24.06
2023-07-10T08:37:28.866Z,24.24
2023-07-10T08:38:28.837Z,24.24
2023-07-10T08:39:28.840Z,24.28
2023-07-10T08:40:28.812Z,24.16
2023-07-10T09:04:51.188Z,24.50
2023-07-10T09:05:51.157Z,24.84
2023-07-10T09:06:51.168Z,25.15
2023-07-10T09:07:51.144Z,25.21
2023-07-10T09:08:51.134Z,24.88
2023-07-10T09:09:51.117Z,24.83
2023-07-10T09:10:51.104Z,24.77
2023-07-10T09:11:51.098Z,24.76
2023-07-10T09:20:49.548Z,24.18
2023-07-10T09:21:49.470Z,24.25
2023-07-10T09:22:49.450Z,24.30
2023-07-10T09:24:28.229Z,24.32
2023-07-10T09:39:42.488Z,24.67
2023-07-10T09:40:42.452Z,24.71
2023-07-10T09:41:42.436Z,24.90
2023-07-10T09:42:42.455Z,25.00
2023-07-10T09:43:42.417Z,24.80
2023-07-10T09:44:42.399Z,25.03
2023-07-10T09:45:42.386Z,25.09
2023-07-10T09:46:42.443Z,24.95
2023-07-10T09:47:42.458Z,24.96
2023-07-10T09:48:42.355Z,24.68
2023-07-10T09:49:42.362Z,24.67
2023-07-10T09:50:42.330Z,24.58
2023-07-10T09:51:42.319Z,24.69
2023-07-10T09:52:42.319Z,24.90
2023-07-10T09:53:42.297Z,24.91
2023-07-10T09:54:42.291Z,24.99
2023-07-10T09:55:42.301Z,24.77
2023-07-10T09:56:42.261Z,24.57
2023-07-10T09:57:42.265Z,24.60
2023-07-10T09:58:42.237Z,24.77
2023-07-10T09:59:42.232Z,24.88
2023-07-10T10:00:42.217Z,25.17
2023-07-10T10:01:42.216Z,24.98
2023-07-10T10:02:42.215Z,24.91
2023-07-10T10:03:42.194Z,25.13
2023-07-10T10:04:42.169Z,25.33
2023-07-10T10:05:42.171Z,25.47
2023-07-10T10:06:42.206Z,25.82
2023-07-10T10:07:42.154Z,26.10
2023-07-10T10:08:42.125Z,26.35
2023-07-10T10:09:42.154Z,26.26
2023-07-10T10:10:42.102Z,25.69
2023-07-10T10:11:42.095Z,25.52
2023-07-10T10:12:42.126Z,25.55
2023-07-10T10:13:42.110Z,25.23
2023-07-10T10:14:42.065Z,25.32
2023-07-10T10:15:42.057Z,25.15
2023-07-10T10:16:42.048Z,25.17
2023-07-10T10:17:42.120Z,25.21
2023-07-10T10:18:42.132Z,25.38
2023-07-10T10:19:42.015Z,25.17
2023-07-10T10:20:41.999Z,25.09
2023-07-10T10:21:41.986Z,24.93
2023-07-10T10:22:41.986Z,24.84
2023-07-10T10:23:41.968Z,24.98
2023-07-10T10:24:41.951Z,25.21
2023-07-10T10:25:41.961Z,25.30
2023-07-10T10:26:41.935Z,25.43
2023-07-10T10:27:41.937Z,25.39
2023-07-10T10:28:41.908Z,25.65
2023-07-10T10:29:41.902Z,25.45
2023-07-10T10:45:42.880Z,26.77
2023-07-10T10:46:42.828Z,26.84
2023-07-10T10:47:42.928Z,26.75
2023-07-10T10:48:42.804Z,26.82
2023-07-10T10:49:42.802Z,27.13
2023-07-10T10:50:42.788Z,27.22
2023-07-10T10:51:42.777Z,27.02
2023-07-10T10:52:42.776Z,26.89
2023-07-10T10:53:42.786Z,26.58
2023-07-10T10:54:42.742Z,26.13
2023-07-10T10:55:42.734Z,25.39
2023-07-10T10:56:42.720Z,25.28
2023-07-10T10:57:42.727Z,25.20
2023-07-10T10:58:42.718Z,25.03
2023-07-10T10:59:42.692Z,25.02
2023-07-10T11:00:42.681Z,25.18
2023-07-10T11:01:42.791Z,25.47
2023-07-10T11:02:42.731Z,26.07
2023-07-10T11:03:42.680Z,26.58
2023-07-10T11:04:42.637Z,27.04
2023-07-10T11:05:42.645Z,26.87
2023-07-10T11:06:42.629Z,26.97
2023-07-10T11:07:42.617Z,27.17
2023-07-10T11:08:42.591Z,27.24
2023-07-10T11:09:42.581Z,26.58
2023-07-10T11:10:42.569Z,26.63
2023-07-10T11:11:42.562Z,26.15
2023-07-10T11:12:42.559Z,26.18
2023-07-10T11:13:42.569Z,25.91
2023-07-10T11:14:42.527Z,25.97
2023-07-10T11:15:57.555Z,25.94
2023-07-10T11:16:57.524Z,26.63
2023-07-10T11:17:57.567Z,27.24
2023-07-10T11:18:57.479Z,27.69
2023-07-10T11:19:57.474Z,27.97
2023-07-10T11:20:57.458Z,28.61
2023-07-10T11:21:57.453Z,28.93
2023-07-10T11:22:58.123Z,28.56
2023-07-10T11:23:57.441Z,27.75
2023-07-10T11:24:57.418Z,27.72
2023-07-10T11:25:57.408Z,27.03
2023-07-10T11:26:57.401Z,26.67
2023-07-10T11:27:57.394Z,26.15
2023-07-10T11:29:07.346Z,25.95
2023-07-10T11:29:57.372Z,25.76
2023-07-10T11:30:57.390Z,25.60
2023-07-10T11:31:57.351Z,26.18
2023-07-10T11:32:57.427Z,26.60
2023-07-10T11:33:57.369Z,26.35
2023-07-10T11:35:10.455Z,26.60
2023-07-10T11:35:57.320Z,27.09
2023-07-10T11:36:57.291Z,27.43
2023-07-10T11:37:57.280Z,27.63
2023-07-10T11:38:57.267Z,28.06
2023-07-10T11:39:57.329Z,28.44
2023-07-10T11:40:57.255Z,28.33
2023-07-10T11:41:57.240Z,27.79
2023-07-10T11:42:57.225Z,27.41
2023-07-10T11:43:57.226Z,27.75
2023-07-10T11:44:57.239Z,28.44
2023-07-10T11:45:57.194Z,27.94
2023-07-10T11:46:57.226Z,27.50
2023-07-10T11:47:57.203Z,27.99
2023-07-10T11:48:57.163Z,27.93
2023-07-10T11:49:57.156Z,28.37
2023-07-10T11:50:57.155Z,28.90
2023-07-10T11:51:57.134Z,29.06
2023-07-10T11:52:57.118Z,29.65
2023-07-10T11:53:57.113Z,29.53
2023-07-10T11:54:57.107Z,29.36
2023-07-10T11:55:57.124Z,29.23
2023-07-10T11:56:57.081Z,28.92
2023-07-10T11:57:57.074Z,28.74
2023-07-10T11:58:57.075Z,28.78
2023-07-10T11:59:57.054Z,28.66
2023-07-10T12:00:57.078Z,29.09
2023-07-10T12:01:57.046Z,29.30
2023-07-10T12:02:57.217Z,29.34
2023-07-10T12:03:57.083Z,29.53
2023-07-10T12:04:57.002Z,28.55
2023-07-10T12:05:57.005Z,27.85
2023-07-10T12:06:56.981Z,27.78
2023-07-10T12:08:00.186Z,28.37
2023-07-10T12:08:56.972Z,28.43
2023-07-10T12:09:56.960Z,28.39
2023-07-10T12:10:56.967Z,28.76
2023-07-10T12:11:56.957Z,28.78
2023-07-10T12:12:56.939Z,28.31
2023-07-10T12:13:56.951Z,27.74
2023-07-10T12:14:56.909Z,27.40
2023-07-10T12:15:56.920Z,27.65
2023-07-10T12:17:56.923Z,27.63
2023-07-10T12:18:56.931Z,27.57
2023-07-10T12:19:56.868Z,27.50
2023-07-10T12:20:56.854Z,27.31
2023-07-10T12:21:56.857Z,27.29
2023-07-10T12:22:56.837Z,27.65
2023-07-10T12:23:56.832Z,28.40
2023-07-10T12:24:56.810Z,28.68
2023-07-10T12:25:56.829Z,28.73
2023-07-10T12:28:56.784Z,28.54
2023-07-10T12:29:56.835Z,28.56
2023-07-10T12:30:56.794Z,27.84
2023-07-10T12:31:56.776Z,27.82
2023-07-10T12:32:56.804Z,27.85
2023-07-10T12:33:57.109Z,27.93
2023-07-10T12:34:56.749Z,27.77
2023-07-10T12:35:56.713Z,27.50
2023-07-10T12:36:56.744Z,27.39
2023-07-10T12:37:56.704Z,28.02
2023-07-10T12:38:56.698Z,28.73
2023-07-10T12:39:56.675Z,28.78
2023-07-10T12:40:56.664Z,28.80
2023-07-10T12:41:56.691Z,29.09
2023-07-10T12:42:56.645Z,29.64
2023-07-10T12:43:56.637Z,30.26
2023-07-10T12:44:56.686Z,29.58
2023-07-10T12:45:56.630Z,29.52
2023-07-10T12:46:56.715Z,29.36
2023-07-10T12:47:59.112Z,29.52
2023-07-10T12:48:56.577Z,28.59
2023-07-10T12:49:56.585Z,27.67
2023-07-10T12:50:56.578Z,27.43
2023-07-10T12:51:56.555Z,28.34
2023-07-10T12:52:56.560Z,28.78
2023-07-10T12:53:56.550Z,29.19
2023-07-10T12:54:56.573Z,29.08
2023-07-10T12:56:07.348Z,28.81
2023-07-10T12:56:56.507Z,29.11
2023-07-10T12:57:56.521Z,29.14
2023-07-10T12:58:56.489Z,30.02
2023-07-10T12:59:56.505Z,30.47
2023-07-10T13:00:56.510Z,30.32
2023-07-10T13:01:56.466Z,30.01
2023-07-10T13:02:56.542Z,29.48
2023-07-10T13:03:56.536Z,28.86
2023-07-10T13:04:56.469Z,29.53
2023-07-10T13:05:56.442Z,29.61
2023-07-10T13:06:56.424Z,29.52
2023-07-10T13:07:56.434Z,29.16
2023-07-10T13:08:56.425Z,29.06
2023-07-10T13:09:56.409Z,29.21
2023-07-10T13:10:56.399Z,29.48
2023-07-10T13:11:56.383Z,30.07
2023-07-10T13:12:56.384Z,30.43
2023-07-10T13:14:09.419Z,30.83
2023-07-10T13:14:56.367Z,30.84
2023-07-10T13:15:56.351Z,30.42
2023-07-10T13:16:56.358Z,30.19
2023-07-10T13:17:56.394Z,29.76
2023-07-10T13:18:57.251Z,29.90
2023-07-10T13:20:07.862Z,30.15
2023-07-10T13:20:56.313Z,30.49
2023-07-10T13:21:56.359Z,30.86
2023-07-10T13:22:56.308Z,30.92
2023-07-10T13:23:56.290Z,31.02
2023-07-10T13:24:56.307Z,30.67
2023-07-10T13:25:56.276Z,31.06
2023-07-10T13:26:56.267Z,31.73
2023-07-10T13:27:56.281Z,32.04
2023-07-10T13:28:56.303Z,32.57
2023-07-10T13:29:56.253Z,31.88
2023-07-10T13:30:56.240Z,31.35
2023-07-10T13:31:56.266Z,30.92
2023-07-10T13:32:56.284Z,31.46
2023-07-10T13:33:56.227Z,31.23
2023-07-10T13:34:56.239Z,30.51
2023-07-10T13:35:56.217Z,30.88
2023-07-10T13:36:56.198Z,30.86
2023-07-10T13:37:56.212Z,30.88
2023-07-10T13:38:56.191Z,31.20
2023-07-10T13:39:56.182Z,30.53
2023-07-10T13:40:56.189Z,30.54
2023-07-10T13:41:56.166Z,31.31
2023-07-10T13:42:56.179Z,30.49
2023-07-10T13:43:56.157Z,31.32
2023-07-10T13:44:56.143Z,30.65
2023-07-10T13:45:56.154Z,30.26
2023-07-10T13:46:56.184Z,29.41
2023-07-10T13:47:56.199Z,29.02
2023-07-10T13:48:56.140Z,28.76
2023-07-10T13:49:56.114Z,28.41
2023-07-10T13:50:56.109Z,29.08
2023-07-10T13:51:56.109Z,29.09
2023-07-10T13:52:56.108Z,29.09
2023-07-10T13:53:56.086Z,29.34
2023-07-10T13:54:56.078Z,28.54
2023-07-10T13:55:56.077Z,28.86
2023-07-10T13:56:56.062Z,29.67
2023-07-10T13:57:56.084Z,30.58
2023-07-10T13:58:56.052Z,30.99
2023-07-10T13:59:56.068Z,31.50
2023-07-10T14:00:56.063Z,30.73
2023-07-10T14:01:56.090Z,30.89
2023-07-10T14:02:58.156Z,30.88
2023-07-10T14:03:56.065Z,30.80
2023-07-10T14:04:56.006Z,30.92
2023-07-10T14:05:56.008Z,30.51
2023-07-10T14:06:55.995Z,31.09
2023-07-10T14:07:56.003Z,31.04
2023-07-10T14:08:55.982Z,31.17
2023-07-10T14:09:55.993Z,31.14
2023-07-10T14:10:55.969Z,31.44
2023-07-10T14:11:55.967Z,30.67
2023-07-10T14:12:55.977Z,30.54
2023-07-10T14:13:56.028Z,31.20
2023-07-10T14:14:55.947Z,30.51
2023-07-10T14:15:55.965Z,30.23
2023-07-10T14:16:55.935Z,30.51
2023-07-10T14:17:56.003Z,29.83
2023-07-10T14:18:55.934Z,29.61
2023-07-10T14:19:55.921Z,30.38
2023-07-10T14:20:55.919Z,30.20
2023-07-10T14:21:55.911Z,30.11
2023-07-10T14:22:55.925Z,29.78
2023-07-10T14:23:55.901Z,29.37
2023-07-10T14:24:55.919Z,29.46
2023-07-10T14:25:58.211Z,29.31
2023-07-10T14:26:55.992Z,29.30
2023-07-10T14:27:55.894Z,29.02
2023-07-10T14:28:55.886Z,28.31
2023-07-10T14:29:55.868Z,28.34
2023-07-10T14:30:55.943Z,28.46
2023-07-10T14:31:55.857Z,28.73
2023-07-10T14:32:55.896Z,29.34
2023-07-10T14:33:55.851Z,29.23
2023-07-10T14:34:55.850Z,29.14
2023-07-10T14:35:55.845Z,29.11
2023-07-10T14:36:55.829Z,28.73
2023-07-10T14:37:55.837Z,28.66
2023-07-10T14:38:55.824Z,28.39
2023-07-10T14:39:55.811Z,28.12
2023-07-10T14:40:55.806Z,28.04
2023-07-10T14:41:55.802Z,27.88
2023-07-10T14:42:55.811Z,27.90
2023-07-10T14:43:55.786Z,28.39
2023-07-10T14:44:55.787Z,28.27
2023-07-10T14:45:55.929Z,28.31
2023-07-10T14:47:06.800Z,29.37
2023-07-10T14:47:55.790Z,29.04
2023-07-10T14:48:55.762Z,29.67
2023-07-10T14:49:55.742Z,29.73
2023-07-10T14:50:55.912Z,28.81
2023-07-10T14:51:56.727Z,28.78
2023-07-10T14:52:55.742Z,28.44
2023-07-10T14:53:55.721Z,28.24
2023-07-10T14:54:55.708Z,28.24
2023-07-10T14:55:55.706Z,28.22
2023-07-10T14:56:55.700Z,28.24
2023-07-10T14:57:55.710Z,28.11
2023-07-10T14:58:55.796Z,28.17
2023-07-10T14:59:55.678Z,27.99
2023-07-10T15:00:55.699Z,28.00
2023-07-10T15:01:55.772Z,27.97
2023-07-10T15:02:55.755Z,27.96
2023-07-10T15:03:55.724Z,28.31
2023-07-10T15:04:55.639Z,28.71
2023-07-10T15:05:55.622Z,30.10
2023-07-10T15:06:55.621Z,31.13
2023-07-10T15:07:55.623Z,30.83
2023-07-10T15:08:55.602Z,30.72
2023-07-10T15:09:55.599Z,31.28
2023-07-10T15:10:55.592Z,31.47
2023-07-10T15:11:55.586Z,32.37
2023-07-10T15:12:55.588Z,32.45
2023-07-10T15:13:55.604Z,31.91
2023-07-10T15:14:55.569Z,31.35
2023-07-10T15:15:55.552Z,30.37
2023-07-10T15:16:55.551Z,31.14
2023-07-10T15:17:55.566Z,32.25
2023-07-10T15:18:55.613Z,32.47
2023-07-10T15:19:55.529Z,32.67
2023-07-10T15:20:55.524Z,32.88
2023-07-10T15:21:55.519Z,33.47
2023-07-10T15:22:55.528Z,33.21
2023-07-10T15:23:55.506Z,33.91
2023-07-10T15:24:55.513Z,33.76
2023-07-10T15:25:55.505Z,33.49
2023-07-10T15:26:55.538Z,33.59
2023-07-10T15:27:55.539Z,33.53
2023-07-10T15:28:55.505Z,33.82
2023-07-10T15:29:55.505Z,33.81
2023-07-10T15:30:55.536Z,34.22
2023-07-10T15:31:55.518Z,34.44
2023-07-10T15:32:55.522Z,34.56
2023-07-10T15:33:55.491Z,35.15
2023-07-10T15:34:55.484Z,35.07
2023-07-10T15:35:55.511Z,34.82
2023-07-10T15:36:55.483Z,33.95
2023-07-10T15:37:55.496Z,33.66
2023-07-10T15:38:55.484Z,33.91
2023-07-10T15:39:55.534Z,33.76
2023-07-10T15:40:55.534Z,33.61
2023-07-10T15:41:55.481Z,33.60
2023-07-10T15:42:55.506Z,33.79
2023-07-10T15:43:55.501Z,33.93
2023-07-10T15:44:55.484Z,34.80
2023-07-10T15:45:55.502Z,34.78
2023-07-10T15:46:55.569Z,34.37
2023-07-10T15:47:57.485Z,34.00
2023-07-10T15:48:55.551Z,34.16
2023-07-10T15:49:55.498Z,34.40
2023-07-10T15:50:55.489Z,34.66
2023-07-10T15:51:55.486Z,34.22
2023-07-10T15:52:55.507Z,33.84
2023-07-10T15:53:55.498Z,34.02
2023-07-10T15:54:55.488Z,33.56
2023-07-10T15:55:55.485Z,32.25
2023-07-10T15:56:55.487Z,32.52
2023-07-10T15:57:55.501Z,32.67
2023-07-10T15:58:55.487Z,32.85
2023-07-10T15:59:55.485Z,32.52
2023-07-10T16:00:55.551Z,32.19
2023-07-10T16:01:55.518Z,32.25
2023-07-10T16:02:55.734Z,32.08
2023-07-10T16:03:55.484Z,32.56
2023-07-10T16:04:55.916Z,33.01
2023-07-10T16:05:55.486Z,33.56
2023-07-10T16:06:55.486Z,32.87
2023-07-10T16:07:55.507Z,32.75
2023-07-10T16:08:55.480Z,32.94
2023-07-10T16:09:55.535Z,32.28
2023-07-10T16:10:55.486Z,31.34
2023-07-10T16:11:55.513Z,31.69
2023-07-10T16:12:55.532Z,31.88
2023-07-10T16:13:55.537Z,31.91
2023-07-10T16:14:55.512Z,31.88
2023-07-10T16:15:55.488Z,32.08
2023-07-10T16:16:55.518Z,32.55
2023-07-10T16:17:55.616Z,31.41
2023-07-10T16:18:55.506Z,31.12
2023-07-10T16:19:55.525Z,30.79
2023-07-10T16:20:55.615Z,31.12
2023-07-10T16:21:55.522Z,31.20
2023-07-10T16:22:55.483Z,31.14
2023-07-10T16:23:55.472Z,31.29
2023-07-10T16:24:55.466Z,30.82
2023-07-10T16:25:55.463Z,30.67
2023-07-10T16:26:55.466Z,30.88
2023-07-10T16:27:55.475Z,30.89
2023-07-10T16:28:55.471Z,31.20
2023-07-10T16:29:55.458Z,31.31
2023-07-10T16:30:55.498Z,31.31
2023-07-10T16:31:55.470Z,31.48
2023-07-10T16:32:55.652Z,30.61
2023-07-10T16:33:55.461Z,30.82
2023-07-10T16:34:55.461Z,30.72
2023-07-10T16:35:55.454Z,30.70
2023-07-10T16:36:55.497Z,30.77
2023-07-10T16:37:55.476Z,30.99
2023-07-10T16:38:55.453Z,30.92
2023-07-10T16:39:55.450Z,30.70
2023-07-10T16:40:55.449Z,30.73
2023-07-10T16:41:55.443Z,30.64
2023-07-10T16:42:55.457Z,30.26
2023-07-10T16:43:55.437Z,30.80
2023-07-10T16:44:55.437Z,30.91
2023-07-10T16:45:55.437Z,31.14
2023-07-10T16:46:55.436Z,31.72
2023-07-10T16:47:55.615Z,31.31
2023-07-10T16:48:55.426Z,31.32
2023-07-10T16:49:55.426Z,30.69
2023-07-10T16:50:55.425Z,31.17
2023-07-10T16:51:55.422Z,31.17
2023-07-10T16:52:55.432Z,31.23
2023-07-10T16:53:55.468Z,31.29
2023-07-10T16:54:55.416Z,31.80
2023-07-10T16:55:55.430Z,31.91
2023-07-10T16:56:55.416Z,31.51
2023-07-10T16:57:55.418Z,31.16
2023-07-10T16:58:55.407Z,31.39
2023-07-10T16:59:55.402Z,31.89
2023-07-10T17:00:55.401Z,31.56
2023-07-10T17:01:55.427Z,31.57
2023-07-10T17:02:55.477Z,31.86
2023-07-10T17:03:55.450Z,31.89
2023-07-10T17:04:55.395Z,32.13
2023-07-10T17:05:55.386Z,31.04
2023-07-10T17:06:55.399Z,31.20
2023-07-10T17:07:55.380Z,30.72
2023-07-10T17:08:55.383Z,30.99
2023-07-10T17:09:55.375Z,30.70
2023-07-10T17:10:55.381Z,30.60
2023-07-10T17:11:55.389Z,30.51
2023-07-10T17:12:55.378Z,30.00
2023-07-10T17:13:55.440Z,30.16
2023-07-10T17:14:55.367Z,30.37
2023-07-10T17:15:55.368Z,30.47
2023-07-10T17:16:55.419Z,30.49
2023-07-10T17:17:55.393Z,30.62
2023-07-10T17:18:55.358Z,30.67
2023-07-10T17:19:55.348Z,30.24
2023-07-10T17:20:55.374Z,30.17
2023-07-10T17:21:56.207Z,30.22
2023-07-10T17:22:55.348Z,30.02
2023-07-10T17:23:55.345Z,30.05
2023-07-10T17:24:55.378Z,30.23
2023-07-10T17:25:55.337Z,30.27
2023-07-10T17:26:55.340Z,30.23
2023-07-10T17:27:55.326Z,30.19
2023-07-10T17:28:55.321Z,30.07
2023-07-10T17:29:55.316Z,30.00
2023-07-10T17:30:55.375Z,29.70
2023-07-10T17:31:55.319Z,29.63
2023-07-10T17:32:55.357Z,29.52
2023-07-10T17:33:55.330Z,29.36
2023-07-10T17:34:55.343Z,29.27
2023-07-10T17:35:55.290Z,29.08
2023-07-10T17:37:55.326Z,28.49
